This is the latest recevied weather packets stored in our database for station/object OM0AGP-15. If no packets are shown the sender has not sent any weather packets the latest 1 day(s).
| Time | Temp. | Humidity | Pressure | Rain* | Wind** | Luminosity | Snow |
|---|---|---|---|---|---|---|---|
| 1778044361 | 16.11° C | 50% | 1009.6 hPa | - | - | - | - |
| 1778042561 | 11.67° C | 70% | 1009.7 hPa | - | - | - | - |
| 1778041661 | 10.56° C | 72% | 1009.7 hPa | - | - | - | - |
| 1778040761 | 10° C | 69% | 1009.7 hPa | - | - | - | - |
| 1778039861 | 8.89° C | 69% | 1009.4 hPa | - | - | - | - |
| 1778038961 | 8.89° C | 67% | 1009.4 hPa | - | - | - | - |
| 1778038061 | 9.44° C | 65% | 1009.5 hPa | - | - | - | - |
| 1778037161 | 9.44° C | 62% | 1009.7 hPa | - | - | - | - |
| 1778036261 | 9.44° C | 64% | 1009.7 hPa | - | - | - | - |
| 1778035361 | 8.89° C | 68% | 1009.9 hPa | - | - | - | - |
| 1778033560 | 8.33° C | 68% | 1009.9 hPa | - | - | - | - |
| 1778032660 | 7.78° C | 68% | 1009.8 hPa | - | - | - | - |
| 1778031760 | 7.22° C | 68% | 1009.9 hPa | - | - | - | - |
| 1778029960 | 7.22° C | 68% | 1010 hPa | - | - | - | - |
| 1778029060 | 6.67° C | 70% | 1010.2 hPa | - | - | - | - |
| 1778028160 | 7.22° C | 69% | 1010.2 hPa | - | - | - | - |
| 1778027260 | 6.67° C | 69% | 1010.3 hPa | - | - | - | - |
| 1778026360 | 7.22° C | 67% | 1010.3 hPa | - | - | - | - |
| 1778024560 | 7.78° C | 66% | 1010.4 hPa | - | - | - | - |
| 1778023661 | 7.78° C | 63% | 1010.4 hPa | - | - | - | - |
| 1778022760 | 8.33° C | 63% | 1010.4 hPa | - | - | - | - |
| 1778021860 | 7.78° C | 64% | 1010.3 hPa | - | - | - | - |
| 1778012859 | 11.67° C | 53% | 1010.6 hPa | - | - | - | - |
| 1778009259 | 12.78° C | 48% | 1010.3 hPa | - | - | - | - |
| 1778008359 | 13.33° C | 47% | 1010.3 hPa | - | - | - | - |
* Rain since midnight (hover to see other rain measurements)
** Current wind speed in m/s (hover to see current wind gust speed)